Flight Track Log - Related Links

Times and Time Zones

All times are in EDT time to prevent confusion due to time zone crossing. See the AAL1441 flight status page for this flight to view local times or setup timezone preferences in your user account.

Time Position Orientation Groundspeed Altitude Reporting Facility
EDT Latitude Longitude Course Direction KTS MPH feet Rate Location/Type
Wed 02:27:02 PM 32.8833 -97.0500 294° West 180 207 1,400  Level Dallas TRACON
Wed 02:27:34 PM 32.8500 -97.0500 180° South 182 209 2,300 1,500 Climbing Dallas TRACON
Wed 02:28:34 PM 32.8000 -97.0667 196° South 235 270 3,700 1,627 Climbing Dallas TRACON
Wed 02:29:00 PM 32.8035 -97.3162 298° West  Level FlightAware
Wed 02:29:32 PM 32.7667 -97.1333 239° Southwest 260 299 5,500  Level Dallas TRACON
Wed 02:30:00 PM 32.8557 -97.4391 296° West  Level FlightAware
Wed 02:30:32 PM 32.7667 -97.2333 270° West 288 331 7,500  Level Dallas TRACON
Wed 02:31:00 PM 32.9047 -97.5639 292° West  Level FlightAware
Wed 02:31:51 PM 32.8103 -97.3342 297° West 297 342 10,300  Level Fort Center
Wed 02:32:00 PM 32.9506 -97.6905 294° West  Level FlightAware
Wed 02:32:51 PM 32.8522 -97.4356 296° West 303 349 12,100  Level Fort Center
Wed 02:33:51 PM 32.8897 -97.5272 296° West 327 376 14,100 2,000 Climbing Fort Center
Wed 02:34:51 PM 32.9397 -97.6336 299° West 356 410 16,100 2,000 Climbing Fort Center
Wed 02:35:51 PM 32.9853 -97.7625 293° West 372 428 18,100 1,900 Climbing Fort Center
Wed 02:36:51 PM 33.0017 -97.8792 280° West 389 448 19,900 2,050 Climbing Fort Center
Wed 02:37:51 PM 33.0258 -98.0303 281° West 417 480 22,200 2,000 Climbing Fort Center
Wed 02:38:51 PM 33.0442 -98.1519 280° West 423 487 23,900 1,650 Climbing Fort Center
Wed 02:39:51 PM 33.0681 -98.3058 281° West 429 494 25,500 1,450 Climbing Fort Center
Wed 02:40:51 PM 33.0881 -98.4325 281° West 429 494 26,800 1,250 Climbing Fort Center
Wed 02:41:51 PM 33.1161 -98.5692 284° West 429 494 28,000 1,150 Climbing Fort Center
Wed 02:42:51 PM 33.1711 -98.7039 296° West 441 507 29,100 1,250 Climbing Fort Center
Wed 02:43:51 PM 33.2261 -98.8414 296° West 441 507 30,500 1,400 Climbing Fort Center
Wed 02:44:51 PM 33.2808 -98.9739 296° West 441 507 31,900 1,350 Climbing Fort Center
Wed 02:45:51 PM 33.3356 -99.1042 297° West 446 513 33,200 1,200 Climbing Fort Center
Wed 02:46:51 PM 33.3878 -99.2369 295° West 446 513 34,300 1,050 Climbing Fort Center
Wed 02:47:51 PM 33.4400 -99.3675 296° West 446 513 35,300 850 Climbing Fort Center
Wed 02:48:51 PM 33.4944 -99.4983 297° West 446 513 36,000 350 Climbing Fort Center
Wed 02:49:51 PM 33.5483 -99.6317 296° West 446 513 36,000  Level Fort Center
Wed 02:50:51 PM 33.6025 -99.7628 296° West 446 513 36,000  Level Fort Center
Wed 02:51:51 PM 33.6542 -99.8964 295° West 446 513 36,000  Level Fort Center
Wed 02:52:51 PM 33.7075 -100.0328 295° West 446 513 36,000  Level Fort Center
Wed 02:53:51 PM 33.7611 -100.1692 295° West 446 513 36,000  Level Fort Center
Wed 02:54:51 PM 33.8122 -100.3033 295° West 446 513 36,000  Level Fort Center
Wed 02:55:51 PM 33.8678 -100.4328 297° West 446 513 36,000  Level Fort Center
Wed 02:56:51 PM 33.9164 -100.5719 293° West 446 513 36,000  Level Fort Center
Wed 02:57:51 PM 33.9714 -100.7044 297° West 446 513 36,000  Level Fort Center
Wed 02:58:51 PM 34.0219 -100.8389 294° West 446 513 36,000  Level Fort Center
Wed 02:59:51 PM 34.0747 -100.9714 296° West 436 502 36,000  Level Fort Center
Wed 03:00:51 PM 34.1350 -101.1244 295° West 453 521 36,000  Level Fort Center
Wed 03:01:51 PM 34.1811 -101.2494 294° West 451 519 36,000  Level Fort Center
Wed 03:02:51 PM 34.2372 -101.3978 295° West 445 512 36,000  Level Fort Center
Wed 03:03:51 PM 34.2833 -101.5181 295° West 445 512 36,000  Level Fort Center
Wed 03:04:51 PM 34.3389 -101.6639 295° West 445 512 36,000  Level Fort Center
Wed 03:06:03 PM 34.3947 -101.8142 294° West 444 511 36,000  Level Albuquerque Center
Wed 03:07:04 PM 34.4456 -101.9506 294° West 443 510 36,000  Level Albuquerque Center
Wed 03:08:06 PM 34.4950 -102.0856 294° West 439 505 36,000  Level Albuquerque Center
Wed 03:09:08 PM 34.5458 -102.2206 295° West 438 504 36,000  Level Albuquerque Center
Wed 03:10:10 PM 34.6061 -102.3836 294° West 440 506 36,000  Level Albuquerque Center
Wed 03:11:12 PM 34.6547 -102.5192 294° West 438 504 36,000  Level Albuquerque Center
Wed 03:12:14 PM 34.7058 -102.6542 295° West 438 504 36,000  Level Albuquerque Center
Wed 03:13:15 PM 34.7533 -102.7831 294° West 441 507 36,000  Level Albuquerque Center
Wed 03:14:17 PM 34.8114 -102.9425 294° West 438 504 36,000  Level Albuquerque Center
Wed 03:15:19 PM 34.8594 -103.0797 293° West 437 503 36,000  Level Albuquerque Center
Wed 03:16:21 PM 34.9100 -103.2147 295° West 436 502 36,000  Level Albuquerque Center
Wed 03:17:23 PM 34.9594 -103.3511 294° West 436 502 36,000  Level Albuquerque Center
Wed 03:18:25 PM 35.0083 -103.4869 294° West 434 499 36,000  Level Albuquerque Center
Wed 03:19:26 PM 35.0567 -103.6231 293° West 434 499 36,000  Level Albuquerque Center
Wed 03:20:28 PM 35.1050 -103.7594 293° West 434 499 36,000  Level Albuquerque Center
Wed 03:21:30 PM 35.1533 -103.8969 293° West 436 502 36,000  Level Albuquerque Center
Wed 03:22:32 PM 35.2031 -104.0381 293° West 441 507 36,000  Level Albuquerque Center
Wed 03:23:34 PM 35.2503 -104.1739 293° West 437 503 36,000  Level Albuquerque Center
Wed 03:24:36 PM 35.3067 -104.3367 293° West 435 501 36,000  Level Albuquerque Center
Wed 03:25:37 PM 35.3492 -104.4614 293° West 435 501 36,000  Level Albuquerque Center
Wed 03:26:39 PM 35.3969 -104.6006 293° West 439 505 36,000  Level Albuquerque Center
Wed 03:27:41 PM 35.4522 -104.7603 293° West 435 501 36,000  Level Albuquerque Center
Wed 03:28:43 PM 35.4989 -104.8997 292° West 438 504 36,000  Level Albuquerque Center
Wed 03:29:45 PM 35.5461 -105.0381 293° West 436 502 36,000  Level Albuquerque Center
Wed 03:30:46 PM 35.5922 -105.1764 292° West 434 499 36,000  Level Albuquerque Center
Wed 03:31:48 PM 35.6389 -105.3150 293° West 436 502 36,000  Level Albuquerque Center
Wed 03:32:50 PM 35.6858 -105.4531 293° West 435 501 36,000  Level Albuquerque Center
Wed 03:33:51 PM 35.7322 -105.5886 293° West 432 497 36,000  Level Albuquerque Center
Wed 03:34:53 PM 35.7775 -105.7256 292° West 433 498 36,000  Level Albuquerque Center
Wed 03:35:55 PM 35.8242 -105.8622 293° West 434 499 36,000  Level Albuquerque Center
Wed 03:36:56 PM 35.8769 -106.0269 292° West 434 499 36,000  Level Albuquerque Center
Wed 03:37:58 PM 35.9225 -106.1631 292° West 432 497 36,000  Level Albuquerque Center
Wed 03:39:00 PM 35.9686 -106.3033 292° West 439 505 36,000  Level Albuquerque Center
Wed 03:40:01 PM 36.0144 -106.4422 292° West 440 506 36,000  Level Albuquerque Center
Wed 03:41:03 PM 36.0581 -106.5822 291° West 439 505 36,000  Level Albuquerque Center
Wed 03:42:05 PM 36.1033 -106.7206 292° West 438 504 36,000  Level Albuquerque Center
Wed 03:43:06 PM 36.1481 -106.8603 292° West 438 504 36,000  Level Albuquerque Center
Wed 03:44:08 PM 36.1983 -107.0158 292° West 439 505 36,000  Level Albuquerque Center
Wed 03:45:10 PM 36.2461 -107.1711 291° West 435 501 36,000  Level Albuquerque Center
Wed 03:46:11 PM 36.2889 -107.3044 292° West 435 501 36,000  Level Albuquerque Center
Wed 03:47:13 PM 36.3381 -107.4600 291° West 434 499 36,000  Level Albuquerque Center
Wed 03:48:15 PM 36.3781 -107.5919 291° West 430 495 36,000  Level Albuquerque Center
Wed 03:49:16 PM 36.4194 -107.7236 291° West 429 494 36,000  Level Albuquerque Center
Wed 03:50:21 PM 36.4656 -107.8767 291° West 429 494 36,000  Level Denver Center
Wed 03:51:23 PM 36.5147 -108.0325 291° West 435 501 36,000  Level Denver Center
Wed 03:52:25 PM 36.5550 -108.1664 291° West 435 501 36,000  Level Denver Center
Wed 03:53:27 PM 36.6022 -108.3247 290° West 437 503 36,000  Level Denver Center
Wed 03:54:29 PM 36.6442 -108.4614 291° West 443 510 36,000  Level Denver Center
Wed 03:55:31 PM 36.6933 -108.6206 291° West 443 510 36,000  Level Denver Center
Wed 03:56:33 PM 36.7339 -108.7558 291° West 439 505 36,000  Level Denver Center
Wed 03:57:35 PM 36.7794 -108.9108 290° West 433 498 36,000  Level Denver Center
Wed 03:58:37 PM 36.8194 -109.0447 291° West 432 497 36,000  Level Denver Center
Wed 03:59:39 PM 36.8661 -109.2011 290° West 432 497 36,000  Level Denver Center
Wed 04:00:41 PM 36.9044 -109.3369 289° West 433 498 36,000  Level Denver Center
Wed 04:01:43 PM 36.9494 -109.4942 290° West 432 497 36,000  Level Denver Center
Wed 04:02:45 PM 36.9886 -109.6300 290° West 434 499 36,000  Level Denver Center
Wed 04:03:47 PM 37.0286 -109.7889 288° West 431 496 36,000  Level Denver Center
Wed 04:04:49 PM 37.0425 -109.9314 277° West 427 491 36,000  Level Denver Center
Wed 04:05:51 PM 37.0589 -110.0719 278° West 431 496 36,000  Level Denver Center
Wed 04:06:53 PM 37.0753 -110.2331 277° West 432 497 36,000  Level Denver Center
Wed 04:07:55 PM 37.0906 -110.3803 277° West 428 493 36,000  Level Denver Center
Wed 04:08:57 PM 37.1050 -110.5278 277° West 427 491 36,000  Level Denver Center
Wed 04:09:59 PM 37.1242 -110.7042 278° West 426 490 36,000  Level Denver Center
Wed 04:11:01 PM 37.1408 -110.8511 278° West 427 491 36,000  Level Denver Center
Wed 04:12:04 PM 37.1550 -110.9969 277° West 423 487 36,000  Level Denver Center
Wed 04:13:06 PM 37.1725 -111.1411 279° West 420 483 36,000  Level Denver Center
Wed 04:14:08 PM 37.1875 -111.2861 277° West 419 482 36,000  Level Denver Center
Wed 04:15:10 PM 37.2036 -111.4303 278° West 418 481 36,000  Level Denver Center
Wed 04:16:12 PM 37.2219 -111.6022 278° West 415 478 36,000 435 Level Denver Center
Wed 04:17:14 PM 37.2414 -111.7444 280° West 414 476 36,900 823 Climbing Denver Center
Wed 04:18:16 PM 37.2722 -111.8850 285° West 416 479 37,700 667 Climbing Denver Center
Wed 04:18:53 PM 37.2858 -111.9706 281° West 419 482 38,000 182 Climbing Los Center
Wed 04:19:55 PM 37.3147 -112.1153 284° West 426 490 38,000  Level Los Center
Wed 04:20:57 PM 37.3486 -112.2561 287° West 422 486 38,000  Level Los Center
Wed 04:21:48 PM 37.3806 -112.3672 290° West 421 484 38,000  Level Salt Center
Wed 04:22:50 PM 37.4356 -112.5322 293° West 425 489 38,000  Level Salt Center
Wed 04:23:52 PM 37.4817 -112.6681 293° West 423 487 38,000  Level Salt Center
Wed 04:24:54 PM 37.5258 -112.8042 292° West 419 482 38,000  Level Salt Center
Wed 04:25:56 PM 37.5789 -112.9600 293° West 466 536 38,000  Level Salt Center
Wed 04:26:58 PM 37.6267 -113.0928 294° West 427 491 38,000  Level Salt Center
Wed 04:28:00 PM 37.6747 -113.2286 294° West 424 488 38,000  Level Salt Center
Wed 04:29:02 PM 37.7236 -113.3658 294° West 428 493 38,000  Level Salt Center
Wed 04:30:03 PM 37.7742 -113.5025 295° West 430 495 38,000  Level Salt Center
Wed 04:31:06 PM 37.7981 -113.6478 282° West 427 491 38,000  Level Los Center
Wed 04:32:08 PM 37.8081 -113.8253 274° West 423 487 38,000  Level Los Center
Wed 04:33:10 PM 37.8186 -113.9725 275° West 423 487 38,000  Level Los Center
Wed 04:34:24 PM 37.8278 -114.1189 275° West 420 483 38,000  Level Los Center
Wed 04:35:26 PM 37.8383 -114.2942 274° West 419 482 38,000  Level Los Center
Wed 04:36:29 PM 37.8472 -114.4386 275° West 414 476 38,000  Level Los Center
Wed 04:37:43 PM 37.8581 -114.6133 275° West 416 479 38,000  Level Los Center
Wed 04:38:45 PM 37.8675 -114.7886 274° West 417 480 38,000  Level Los Center
Wed 04:39:47 PM 37.8772 -114.9500 274° West 424 488 38,000  Level Los Center
Wed 04:40:23 PM 37.8797 -115.0089 273° West 422 486 38,000  Level Salt Center
Wed 04:41:25 PM 37.8897 -115.1853 274° West 421 484 38,000  Level Salt Center
Wed 04:42:26 PM 37.8969 -115.3319 274° West 417 480 38,000  Level Salt Center
Wed 04:43:28 PM 37.9056 -115.4806 274° West 423 487 38,000  Level Salt Center
Wed 04:44:30 PM 37.9125 -115.6294 273° West 426 490 38,000  Level Salt Center
Wed 04:45:08 PM 37.9172 -115.7194 274° West 426 490 38,000  Level Salt Center
Wed 04:46:09 PM 37.9244 -115.8686 274° West 426 490 38,000  Level Salt Center
Wed 04:47:11 PM 37.9317 -116.0175 274° West 424 488 38,000  Level Salt Center
Wed 04:48:13 PM 37.9408 -116.1975 274° West 428 493 38,000  Level Salt Center
Wed 04:49:15 PM 37.9472 -116.3475 273° West 426 490 38,000  Level Salt Center
Wed 04:50:17 PM 37.9531 -116.4994 273° West 431 496 38,000  Level Salt Center
Wed 04:51:19 PM 37.9603 -116.6478 274° West 425 489 38,000  Level Salt Center
Wed 04:52:21 PM 37.9664 -116.7986 273° West 426 490 38,000  Level Salt Center
Wed 04:53:21 PM 37.9725 -116.9481 273° West 424 488 38,000  Level Oakland Center
Wed 04:54:23 PM 37.9778 -117.0986 273° West 422 486 38,000  Level Oakland Center
Wed 04:55:24 PM 37.9833 -117.2514 273° West 424 488 38,000  Level Oakland Center
Wed 04:56:26 PM 37.9897 -117.4028 273° West 424 488 38,000  Level Oakland Center
Wed 04:57:27 PM 37.9953 -117.5522 273° West 422 486 38,000  Level Oakland Center
Wed 04:58:29 PM 38.0006 -117.7000 273° West 419 482 38,000  Level Oakland Center
Wed 04:59:30 PM 37.9919 -117.8742 266° West 417 480 38,000  Level Oakland Center
Wed 05:00:32 PM 37.9767 -118.0192 262° West 414 476 38,000  Level Oakland Center
Wed 05:01:34 PM 37.9608 -118.1650 262° West 417 480 38,000  Level Oakland Center
Wed 05:02:35 PM 37.9458 -118.3125 263° West 423 487 38,000  Level Oakland Center
Wed 05:03:37 PM 37.9289 -118.4589 262° West 421 484 38,000  Level Oakland Center
Wed 05:04:39 PM 37.9125 -118.6036 262° West 417 480 38,000  Level Oakland Center
Wed 05:05:41 PM 37.8967 -118.7494 262° West 418 481 38,000  Level Oakland Center
Wed 05:06:42 PM 37.8806 -118.8936 262° West 416 479 38,000  Level Oakland Center
Wed 05:07:44 PM 37.8608 -119.0667 262° West 415 478 38,000  Level Oakland Center
Wed 05:08:45 PM 37.8433 -119.2111 261° West 417 480 38,000  Level Oakland Center
Wed 05:09:47 PM 37.8267 -119.3578 262° West 420 483 38,000  Level Oakland Center
Wed 05:10:49 PM 37.8100 -119.5036 262° West 418 481 38,000  Level Oakland Center
Wed 05:11:51 PM 37.7917 -119.6514 261° West 424 488 38,000  Level Oakland Center
Wed 05:12:52 PM 37.7733 -119.8000 261° West 426 490 38,000 -390 Level Oakland Center
Wed 05:13:54 PM 37.7564 -119.9461 262° West 423 487 37,200 -1,452 Descending Oakland Center
Wed 05:14:56 PM 37.7378 -120.0919 261° West 418 481 35,000 -2,806 Descending Oakland Center
Wed 05:15:58 PM 37.7161 -120.2675 261° West 422 486 31,400 -2,878 Descending Oakland Center
Wed 05:16:59 PM 37.6981 -120.4133 261° West 421 484 29,100 -2,195 Descending Oakland Center
Wed 05:18:01 PM 37.6803 -120.5517 261° West 403 464 26,900 -1,694 Descending Oakland Center
Wed 05:19:03 PM 37.6619 -120.6886 260° West 395 455 25,600 -1,171 Descending Oakland Center
Wed 05:20:04 PM 37.6458 -120.8156 261° West 371 427 24,500 -1,512 Descending Oakland Center
Wed 05:21:06 PM 37.6286 -120.9378 260° West 359 413 22,500 -2,032 Descending Oakland Center
Wed 05:22:08 PM 37.6153 -121.0556 262° West 345 397 20,300 -2,032 Descending Oakland Center
Wed 05:23:10 PM 37.6008 -121.1892 262° West 339 390 18,300 -1,951 Descending Oakland Center
Wed 05:24:11 PM 37.5875 -121.2997 261° West 326 375 16,300 -1,902 Descending Oakland Center
Wed 05:25:13 PM 37.5689 -121.4075 258° West 317 365 14,400 -1,805 Descending Oakland Center
Wed 05:26:14 PM 37.5500 -121.5128 257° West 310 357 12,600 -1,659 Descending Oakland Center
Wed 05:27:16 PM 37.5297 -121.6131 256° West 298 343 11,000 -1,355 Descending Oakland Center
Wed 05:28:18 PM 37.5125 -121.7103 257° West 290 334 9,800 -1,246 Descending Oakland Center
Wed 05:29:26 PM 37.4833 -121.8333 253° West 271 312 8,300 -797 Descending Northern TRACON
Wed 05:30:26 PM 37.4833 -121.9167 270° West 257 296 8,100 -650 Descending Northern TRACON
Wed 05:31:26 PM 37.5000 -122.0000 284° West 251 289 7,000 -1,250 Descending Northern TRACON
Wed 05:32:26 PM 37.5333 -122.0833 297° West 237 273 5,600 -1,400 Descending Northern TRACON

Login

Don't have an account? Register now (free) for customized features, flight alerts, and more!